アンタナナリボ の空港の天気 - METARとTAF

イヴァト空港(アンタナナリボ) ( FMMI / TNR ) - マダガスカル アンタナナリボ
飛行場実況気象(Metar)
観測時間05/29 01:30 EAT (05/28 22:30 UTC)
風向・風速南南東 5m/s
視程10km以上
天気現象
少しの雲 雲底高度 300m
全天の8割程度の雲 雲底高度 520m
気温15℃
湿度82%
気圧1023hPa
METARFMMI 282230Z 15009KT 110V190 9999 FEW010 BKN017 15/12 Q1023 NOSIG
過去の天気等 Google飛行場航空写真 Wunderground天気予報

過去48時間のMETAR

飛行場予報(TAF)
発表時間: -
TAF
FMMI 281700Z 2818/2924 14008KT 9999 FEW017 BKN020